createdAt,value
2023-05-05T00:02:41.306Z,6.07
2023-05-05T00:07:43.091Z,5.53
2023-05-05T00:12:44.882Z,5.37
2023-05-05T00:17:46.608Z,5.90
2023-05-05T00:22:48.783Z,5.90
2023-05-05T00:27:50.608Z,5.97
2023-05-05T00:32:52.507Z,5.80
2023-05-05T00:37:55.248Z,6.03
2023-05-05T00:42:56.912Z,6.30
2023-05-05T00:47:59.971Z,6.63
2023-05-05T00:53:05.948Z,6.30
2023-05-05T00:58:08.058Z,7.10
2023-05-05T01:03:09.954Z,7.00
2023-05-05T01:08:25.630Z,6.87
2023-05-05T01:13:42.861Z,6.70
2023-05-05T01:18:58.383Z,6.40
2023-05-05T01:24:24.780Z,6.50
2023-05-05T01:29:26.536Z,6.47
2023-05-05T01:34:34.494Z,6.90
2023-05-05T01:39:38.701Z,6.10
2023-05-05T01:44:43.755Z,6.20
2023-05-05T01:49:47.836Z,6.60
2023-05-05T01:54:50.737Z,5.73
2023-05-05T01:59:53.695Z,5.57
2023-05-05T02:04:57.969Z,5.50
2023-05-05T02:10:02.558Z,5.37
2023-05-05T02:15:05.827Z,5.30
2023-05-05T02:20:12.223Z,5.23
2023-05-05T02:25:14.113Z,5.00
2023-05-05T02:30:20.053Z,4.37
2023-05-05T02:35:26.848Z,5.37
2023-05-05T02:40:31.108Z,5.23
2023-05-05T02:45:33.084Z,5.30
2023-05-05T02:50:34.742Z,5.23
2023-05-05T02:56:06.187Z,5.23
2023-05-05T03:01:31.134Z,5.30
2023-05-05T03:06:39.506Z,5.00
2023-05-05T03:12:06.955Z,5.37
2023-05-05T03:17:12.941Z,5.93
2023-05-05T03:22:14.795Z,6.50
2023-05-05T03:27:16.549Z,6.07
2023-05-05T03:32:18.241Z,6.70
2023-05-05T03:37:19.849Z,6.97
2023-05-05T03:42:21.655Z,6.73
2023-05-05T03:47:24.732Z,6.30
2023-05-05T03:52:26.420Z,6.00
2023-05-05T03:57:28.155Z,5.90
2023-05-05T04:02:29.867Z,6.57
2023-05-05T04:07:31.577Z,6.10
2023-05-05T04:12:33.405Z,6.23
2023-05-05T04:17:35.230Z,6.17
2023-05-05T04:22:37.086Z,6.00
2023-05-05T04:27:38.949Z,6.70
2023-05-05T04:32:40.922Z,6.53
2023-05-05T04:37:42.667Z,5.90
2023-05-05T04:42:44.340Z,6.70
2023-05-05T04:47:46.563Z,5.57
2023-05-05T04:52:48.603Z,5.80
2023-05-05T04:57:50.253Z,5.63
2023-05-05T05:02:52.617Z,5.47
2023-05-05T05:07:54.377Z,6.30
2023-05-05T05:12:56.126Z,5.03
2023-05-05T05:17:57.977Z,5.90
2023-05-05T05:23:02.158Z,5.47
2023-05-05T05:28:10.267Z,4.87
2023-05-05T05:33:12.577Z,4.87
2023-05-05T05:38:14.484Z,5.10
2023-05-05T05:43:16.171Z,4.70
2023-05-05T05:48:17.909Z,4.17
2023-05-05T05:53:19.757Z,4.13
2023-05-05T05:58:21.536Z,4.57
2023-05-05T06:03:23.390Z,4.80
2023-05-05T06:08:25.559Z,4.43
2023-05-05T06:13:27.422Z,4.50
2023-05-05T06:18:29.028Z,4.80
2023-05-05T06:23:30.845Z,4.90
2023-05-05T06:28:32.547Z,4.43
2023-05-05T06:33:34.294Z,4.50
2023-05-05T06:38:36.529Z,4.30
2023-05-05T06:43:38.155Z,4.30
2023-05-05T06:48:40.176Z,4.37
2023-05-05T06:53:41.968Z,4.27
2023-05-05T06:58:43.738Z,4.40
2023-05-05T07:03:45.667Z,4.00
2023-05-05T07:08:47.383Z,4.57
2023-05-05T07:13:49.460Z,4.37
2023-05-05T07:18:51.078Z,4.63
2023-05-05T07:23:52.896Z,4.30
2023-05-05T07:28:57.268Z,4.30
2023-05-05T07:33:58.913Z,4.13
2023-05-05T07:39:00.873Z,3.93
2023-05-05T07:44:02.526Z,3.90
2023-05-05T07:49:04.298Z,4.10
2023-05-05T07:54:06.142Z,3.83
2023-05-05T07:59:07.883Z,3.75
2023-05-05T08:04:10.024Z,3.70
2023-05-05T08:09:11.914Z,3.50
2023-05-05T08:14:13.712Z,3.45
2023-05-05T08:19:25.276Z,3.40
2023-05-05T08:24:30.176Z,2.83
2023-05-05T08:29:31.793Z,3.08
2023-05-05T08:34:33.423Z,2.50
2023-05-05T08:39:35.392Z,2.38
2023-05-05T08:44:37.141Z,2.83
2023-05-05T08:49:48.026Z,2.58
2023-05-05T08:55:07.027Z,2.42
2023-05-05T09:00:10.932Z,2.33
2023-05-05T09:05:12.615Z,2.20
2023-05-05T09:10:14.452Z,2.10
2023-05-05T09:15:16.470Z,2.22
2023-05-05T09:20:18.321Z,2.13
2023-05-05T09:25:20.007Z,2.10
2023-05-05T09:30:26.992Z,1.90
2023-05-05T09:35:29.291Z,1.98
2023-05-05T09:40:46.650Z,2.00
2023-05-05T09:45:49.143Z,1.83
2023-05-05T09:50:51.257Z,1.80
2023-05-05T09:56:00.551Z,2.17
2023-05-05T10:01:02.238Z,2.30
2023-05-05T10:06:04.777Z,2.22
2023-05-05T10:11:07.190Z,2.20
2023-05-05T10:16:12.141Z,2.28
2023-05-05T10:21:18.153Z,1.80
2023-05-05T10:26:22.549Z,1.90
2023-05-05T10:31:30.210Z,1.80
2023-05-05T10:36:32.428Z,1.75
2023-05-05T10:41:34.336Z,1.90
2023-05-05T10:46:36.499Z,1.90
2023-05-05T10:51:54.984Z,1.83
2023-05-05T10:56:59.085Z,2.22
2023-05-05T11:06:31.097Z,2.30
2023-05-05T11:12:05.430Z,2.30
2023-05-05T11:17:45.829Z,2.67
2023-05-05T11:23:02.949Z,1.98
2023-05-05T11:28:15.311Z,1.88
2023-05-05T11:33:26.517Z,2.30
2023-05-05T11:38:49.744Z,1.80
2023-05-05T11:44:08.606Z,1.80
2023-05-05T11:49:10.834Z,1.67
2023-05-05T11:54:13.705Z,2.13
2023-05-05T11:59:15.465Z,1.80
2023-05-05T12:04:19.648Z,1.55
2023-05-05T12:09:23.226Z,2.08
2023-05-05T12:14:25.676Z,1.90
2023-05-05T12:19:33.245Z,1.98
2023-05-05T12:24:35.162Z,2.00
2023-05-05T12:29:37.042Z,1.70
2023-05-05T12:34:38.956Z,1.98
2023-05-05T12:39:40.634Z,1.63
2023-05-05T12:44:44.227Z,1.77
2023-05-05T12:49:50.499Z,1.92
2023-05-05T12:54:59.729Z,1.58
2023-05-05T13:00:13.712Z,1.70
2023-05-05T13:05:15.357Z,1.70
2023-05-05T13:10:16.988Z,1.70
2023-05-05T13:15:18.582Z,1.70
2023-05-05T13:20:20.187Z,1.75
2023-05-05T13:25:21.755Z,1.77
2023-05-05T13:30:23.389Z,1.80
2023-05-05T13:35:25.101Z,1.85
2023-05-05T13:40:26.735Z,1.60
2023-05-05T13:45:28.922Z,1.50
2023-05-05T13:50:30.524Z,1.50
2023-05-05T13:55:32.158Z,1.88
2023-05-05T14:00:34.813Z,1.77
2023-05-05T14:05:37.516Z,1.70
2023-05-05T14:10:40.501Z,1.52
2023-05-05T14:15:42.473Z,1.80
2023-05-05T14:20:44.082Z,1.63
2023-05-05T14:25:45.848Z,2.13
2023-05-05T14:30:47.440Z,1.80
2023-05-05T14:35:49.304Z,1.80
2023-05-05T14:40:51.019Z,2.00
2023-05-05T14:45:53.227Z,1.70
2023-05-05T14:50:54.824Z,1.60
2023-05-05T14:55:56.558Z,2.25
2023-05-05T15:00:58.329Z,1.67
2023-05-05T15:05:59.971Z,2.83
2023-05-05T15:11:01.737Z,2.58
2023-05-05T15:16:03.421Z,2.45
2023-05-05T15:21:05.188Z,2.70
2023-05-05T15:26:07.226Z,3.08
2023-05-05T15:31:08.862Z,2.90
2023-05-05T15:36:10.660Z,3.10
2023-05-05T15:41:12.209Z,2.72
2023-05-05T15:46:13.920Z,2.80
2023-05-05T15:51:15.610Z,3.22
2023-05-05T15:56:17.279Z,2.30
2023-05-05T16:01:18.955Z,2.70
2023-05-05T16:06:20.588Z,2.97
2023-05-05T16:11:23.570Z,2.88
2023-05-05T16:16:25.166Z,2.85
2023-05-05T16:21:27.608Z,3.00
2023-05-05T16:26:29.161Z,4.60
2023-05-05T16:31:32.095Z,3.80
2023-05-05T16:36:33.788Z,3.63
2023-05-05T16:41:35.411Z,3.65
2023-05-05T16:46:37.549Z,3.70
2023-05-05T16:51:39.525Z,3.22
2023-05-05T16:56:41.079Z,5.88
2023-05-05T17:01:43.439Z,2.38
2023-05-05T17:06:45.090Z,2.50
2023-05-05T17:11:46.721Z,2.42
2023-05-05T17:16:48.357Z,2.90
2023-05-05T17:21:49.972Z,3.33
2023-05-05T17:26:51.940Z,4.00
2023-05-05T17:31:54.230Z,2.30
2023-05-05T17:36:56.383Z,2.20
2023-05-05T17:41:57.971Z,2.00
2023-05-05T17:46:59.569Z,2.30
2023-05-05T17:52:01.272Z,2.43
2023-05-05T17:57:02.938Z,2.90
2023-05-05T18:02:04.841Z,2.30
2023-05-05T18:07:06.634Z,2.47
2023-05-05T18:12:08.343Z,2.40
2023-05-05T18:17:10.030Z,2.40
2023-05-05T18:22:12.064Z,2.83
2023-05-05T18:27:13.726Z,3.10
2023-05-05T18:32:15.691Z,13.47
2023-05-05T18:37:17.289Z,2.33
2023-05-05T18:42:18.855Z,1.90
2023-05-05T18:47:20.564Z,2.50
2023-05-05T18:52:22.107Z,2.10
2023-05-05T18:57:23.717Z,2.20
2023-05-05T19:02:25.398Z,2.07
2023-05-05T19:12:49.922Z,2.13
2023-05-05T19:17:52.454Z,2.30
2023-05-05T19:22:54.292Z,2.53
2023-05-05T19:27:55.916Z,2.50
2023-05-05T19:32:57.568Z,2.13
2023-05-05T19:37:59.579Z,2.30
2023-05-05T19:43:01.151Z,2.60
2023-05-05T19:48:02.985Z,2.43
2023-05-05T19:53:04.832Z,2.50
2023-05-05T19:58:06.424Z,2.23
2023-05-05T20:03:08.763Z,2.67
2023-05-05T20:08:10.521Z,2.93
2023-05-05T20:13:19.738Z,2.77
2023-05-05T20:18:21.456Z,2.73
2023-05-05T20:23:23.156Z,2.80
2023-05-05T20:28:24.808Z,2.73
2023-05-05T20:33:27.155Z,3.30
2023-05-05T20:38:28.840Z,3.53
2023-05-05T20:43:30.629Z,3.43
2023-05-05T20:48:32.227Z,3.20
2023-05-05T20:53:33.966Z,2.97
2023-05-05T20:58:35.619Z,3.13
2023-05-05T21:03:37.481Z,2.93
2023-05-05T21:08:39.655Z,2.57
2023-05-05T21:13:41.254Z,3.33
2023-05-05T21:18:46.683Z,2.77
2023-05-05T21:23:48.267Z,3.00
2023-05-05T21:28:49.830Z,2.90
2023-05-05T21:33:51.385Z,3.10
2023-05-05T21:38:57.109Z,3.23
2023-05-05T21:44:00.026Z,3.40
2023-05-05T21:49:12.820Z,3.20
2023-05-05T21:54:14.445Z,3.87
2023-05-05T21:59:17.176Z,3.50
2023-05-05T22:04:19.109Z,3.43
2023-05-05T22:09:20.961Z,3.23
2023-05-05T22:14:22.541Z,3.30
2023-05-05T22:19:24.088Z,3.77
2023-05-05T22:24:25.774Z,3.50
2023-05-05T22:29:27.500Z,3.77
2023-05-05T22:34:29.196Z,4.37
2023-05-05T22:39:30.794Z,3.43
2023-05-05T22:44:32.516Z,3.30
2023-05-05T22:49:34.287Z,3.37
2023-05-05T22:54:36.153Z,4.00
2023-05-05T22:59:37.789Z,3.57
2023-05-05T23:04:39.455Z,3.60
2023-05-05T23:09:41.164Z,3.67
2023-05-05T23:14:42.797Z,3.20
2023-05-05T23:19:47.794Z,3.20
2023-05-05T23:24:49.364Z,3.20
2023-05-05T23:29:51.066Z,3.47
2023-05-05T23:34:52.709Z,3.10
2023-05-05T23:39:54.463Z,3.30
2023-05-05T23:44:56.107Z,3.43
2023-05-05T23:49:57.719Z,3.50
2023-05-05T23:54:59.244Z,3.77
